Latest Weather Observations for Maatsuyker Island

IDT60801

Issued at 4:31 pm EDT Sunday 1 February 2015 (issued every 30 minutes, with the page automatically refreshed every 10 minutes)

About weather observations | Map of weather stations | Latest weather observations for TAS | Other Formats
Station Details ID: 094041 Name: MAATSUYKER ISLAND LIGHTHOUSE Lat: -43.66 Lon: 146.27 Height: 146.5 m
Data from the previous 72 hours. | See also: Recent months at Maatsuyker Island
Date/Time
EDT
Temp
°C
App
Temp
°C
Dew
Point
Rel
Hum
%
Delta-T
°C
Wind Press
QNH
hPa
Press
MSL
hPa
Rain
since 9 am
mm
Dir
 
Spd
km/h
Gust
km/h
Spd
kts
Gust
kts
01/04:30pm 13.3 11.9 9.0 75 2.2 N 6 9 3 5 1017.3 - 0.2
01/04:00pm 13.8 12.2 8.9 72 2.5 N 7 15 4 8 1017.0 - 0.2
01/03:30pm 13.2 10.3 8.2 71 2.5 E 13 28 7 15 1016.9 - 0.0
01/03:00pm 13.5 9.2 9.2 75 2.2 SE 22 19 12 10 1017.1 1017.0 0.0
01/02:30pm 12.7 10.8 8.9 78 1.9 NNE 9 20 5 11 1017.2 - 0.0
01/02:00pm 11.8 8.6 8.6 81 1.6 E 15 37 8 20 1017.1 - 0.0
01/01:30pm 11.3 4.4 8.9 85 1.2 SSE 35 44 19 24 1017.0 - 0.0
01/01:21pm 11.9 4.1 8.3 78 1.8 S 39 41 21 22 1017.0 - 0.0
01/01:00pm 12.0 6.3 8.2 77 1.9 SE 28 35 15 19 1017.0 - 0.0
01/12:45pm 11.5 5.7 8.0 79 1.7 SE 28 39 15 21 1016.9 - 0.0
01/12:30pm 11.9 9.7 7.8 76 2.0 NNE 9 17 5 9 1017.1 - 0.0
01/12:00pm 11.9 8.1 7.4 74 2.2 ESE 17 39 9 21 1017.0 1016.8 0.0
01/11:59am 11.9 8.1 7.4 74 2.2 ESE 17 39 9 21 1016.9 - 0.0
01/11:30am 11.6 2.9 7.5 76 2.0 SSE 43 48 23 26 1016.5 - 0.0
01/11:09am 11.3 3.7 7.4 77 1.9 SSE 37 44 20 24 1016.6 - 0.0
01/11:00am 11.2 6.4 7.5 78 1.8 ESE 22 43 12 23 1016.6 - 0.0
01/10:56am 11.1 6.0 7.6 79 1.7 ESE 24 43 13 23 1016.6 - 0.0
01/10:53am 11.1 3.5 7.4 78 1.8 SSE 37 43 20 23 1016.5 - 0.0
01/10:30am 11.1 8.3 8.5 84 1.3 NE 13 43 7 23 1016.5 - 0.0
01/10:09am 11.3 5.1 8.0 80 1.6 SSE 30 41 16 22 1016.2 - 0.0
01/10:00am 11.3 9.5 8.0 80 1.6 NNE 7 15 4 8 1016.2 - 0.0
01/09:30am 11.1 5.1 6.9 75 2.0 SE 28 37 15 20 1015.9 - 0.0
01/09:00am 10.8 6.1 7.7 81 1.5 SSE 22 39 12 21 1015.6 1015.6 1.2
01/08:30am 10.7 4.0 7.2 79 1.7 S 32 39 17 21 1015.3 - 1.2
01/08:00am 10.4 3.8 7.7 83 1.3 SSE 32 37 17 20 1014.9 - 1.2
01/07:30am 10.5 3.8 7.2 80 1.6 SSE 32 41 17 22 1014.5 - 1.2
01/07:28am 10.5 2.9 7.4 81 1.5 S 37 41 20 22 1014.5 - 1.2
01/07:21am 10.4 4.9 7.5 82 1.4 SE 26 41 14 22 1014.7 - 1.2
01/07:16am 10.3 2.7 7.6 83 1.3 SSE 37 41 20 22 1014.6 - 1.2
01/07:00am 10.5 4.2 7.6 82 1.4 SE 30 46 16 25 1014.4 - 1.2
01/06:54am 10.4 3.7 7.5 82 1.4 ESE 32 48 17 26 1014.2 - 1.2
01/06:30am 10.4 2.1 7.7 83 1.3 SSE 41 48 22 26 1014.1 - 1.2
01/06:00am 10.5 1.2 7.4 81 1.5 S 46 50 25 27 1013.7 1013.6 1.2
01/05:56am 10.3 1.4 7.6 83 1.3 S 44 50 24 27 1013.7 - 1.2
01/05:30am 10.4 3.3 8.2 86 1.1 SE 35 50 19 27 1013.6 - 1.2
01/05:27am 10.5 3.9 8.5 87 1.0 SE 33 50 18 27 1013.6 - 1.2
01/05:00am 10.8 2.1 8.6 86 1.1 S 44 52 24 28 1013.7 - 1.2
01/04:47am 10.7 1.5 8.0 83 1.3 S 46 50 25 27 1013.7 - 1.2
01/04:30am 10.8 4.4 8.4 85 1.2 SE 32 46 17 25 1013.8 - 1.2
01/04:00am 11.0 3.3 8.6 85 1.2 S 39 50 21 27 1013.7 - 1.2
01/03:30am 10.7 2.6 8.5 86 1.1 S 41 48 22 26 1013.9 - 1.2
01/03:00am 10.7 2.7 8.9 89 0.9 SSE 41 46 22 25 1013.8 1013.7 1.2
01/02:47am 10.8 2.9 9.2 90 0.8 SSE 41 46 22 25 1013.8 - 1.2
01/02:44am 11.0 4.8 9.2 89 0.9 SE 32 43 17 23 1013.9 - 1.2
01/02:35am 10.7 3.4 8.9 89 0.9 S 37 41 20 22 1013.8 - 1.2
01/02:30am 10.9 5.8 9.1 89 0.9 SE 26 39 14 21 1013.9 - 1.2
01/02:00am 10.7 6.0 9.1 90 0.8 SE 24 37 13 20 1013.9 - 1.2
01/01:30am 11.0 4.7 9.8 92 0.6 SE 33 43 18 23 1014.0 - 1.2
01/01:08am 11.1 5.8 9.7 91 0.7 SE 28 46 15 25 1014.0 - 1.2
01/01:00am 11.1 8.6 9.7 91 0.7 ENE 13 32 7 17 1014.1 - 1.2
01/12:30am 11.2 6.6 9.6 90 0.8 ESE 24 43 13 23 1014.1 - 1.2
01/12:00am 11.4 6.1 10.0 91 0.7 SSE 28 35 15 19 1014.4 1014.3 1.2
 
Date/Time
EDT
Temp
°C
App
Temp
°C
Dew
Point
Rel
Hum
%
Delta-T
°C
Wind Press
QNH
hPa
Press
MSL
hPa
Rain
since 9 am
mm
Dir
 
Spd
km/h
Gust
km/h
Spd
kts
Gust
kts
31/11:45pm 11.5 4.5 9.9 90 0.8 SSE 37 39 20 21 1014.4 - 1.2
31/11:30pm 11.5 8.7 9.9 90 0.8 E 15 30 8 16 1014.5 - 1.2
31/11:00pm 11.4 8.9 9.8 90 0.8 ENE 13 22 7 12 1014.7 - 1.2
31/10:30pm 11.5 7.0 10.1 91 0.7 SE 24 35 13 19 1014.6 - 1.0
31/10:00pm 11.3 6.4 9.9 91 0.7 SE 26 39 14 21 1014.6 - 1.0
31/09:30pm 11.3 8.2 10.3 94 0.5 E 17 32 9 17 1014.5 - 1.0
31/09:13pm 11.4 7.7 10.2 92 0.6 ENE 20 50 11 27 1013.9 - 1.0
31/09:03pm 11.3 4.0 10.3 94 0.5 SE 39 43 21 23 1014.0 - 1.0
31/09:00pm 11.3 7.7 10.5 95 0.4 E 20 35 11 19 1014.0 1013.8 1.0
31/08:30pm 11.6 9.7 10.6 94 0.5 NNE 11 28 6 15 1014.0 - 0.6
31/08:00pm 11.6 8.6 10.8 95 0.4 ENE 17 35 9 19 1013.7 - 0.6
31/07:30pm 11.6 9.0 10.8 95 0.4 ENE 15 35 8 19 1013.6 - 0.6
31/07:00pm 11.8 8.8 10.6 92 0.6 E 17 35 9 19 1013.5 - 0.2
31/06:30pm 12.0 9.7 10.5 90 0.8 NE 13 37 7 20 1013.4 - 0.2
31/06:00pm 12.0 9.5 10.9 93 0.6 NE 15 41 8 22 1013.5 1013.4 0.0
31/05:53pm 12.1 6.3 10.8 92 0.7 ESE 32 46 17 25 1013.3 - 0.0
31/05:44pm 12.3 5.2 10.8 90 0.8 SSE 39 46 21 25 1013.3 - 0.0
31/05:30pm 12.1 9.8 10.6 90 0.8 NNE 13 33 7 18 1013.5 - 0.0
31/05:13pm 12.1 7.4 10.6 90 0.8 ESE 26 41 14 22 1013.4 - 0.0
31/05:00pm 12.0 4.8 10.7 92 0.7 SSE 39 44 21 24 1013.3 - 0.0
31/04:58pm 12.1 5.3 10.8 92 0.7 SSE 37 41 20 22 1013.4 - 0.0
31/04:30pm 12.2 7.9 10.9 92 0.7 ESE 24 43 13 23 1013.3 - 0.0
31/04:00pm 12.1 5.0 10.8 92 0.7 SE 39 54 21 29 1013.0 - 0.0
31/03:47pm 12.4 5.4 11.1 92 0.7 SSE 39 46 21 25 1013.0 - 0.0
31/03:30pm 12.4 10.2 10.9 90 0.8 NE 13 43 7 23 1013.0 - 0.0
31/03:17pm 12.3 6.4 11.0 92 0.7 ESE 33 52 18 28 1013.0 - 0.0
31/03:00pm 12.2 6.8 10.9 92 0.7 SE 30 50 16 27 1012.9 1012.8 0.0
31/02:46pm 12.3 4.5 11.2 93 0.6 SSE 43 52 23 28 1012.8 - 0.0
31/02:44pm 12.3 7.3 11.0 92 0.7 ESE 28 52 15 28 1012.8 - 0.0
31/02:43pm 12.3 6.4 11.0 92 0.7 ESE 33 52 18 28 1012.8 - 0.0
31/02:30pm 12.2 3.8 11.1 93 0.6 SSE 46 56 25 30 1012.7 - 0.0
31/02:00pm 12.3 4.8 11.0 92 0.7 SSE 41 54 22 29 1013.0 - 0.0
31/01:47pm 12.2 5.2 11.1 93 0.6 SSE 39 50 21 27 1013.1 - 0.0
31/01:46pm 12.2 6.9 11.1 93 0.6 ESE 30 50 16 27 1013.1 - 0.0
31/01:41pm 12.2 7.7 11.3 94 0.5 E 26 56 14 30 1013.1 - 0.0
31/01:30pm 12.1 3.0 11.2 94 0.5 SSE 50 57 27 31 1013.2 - 0.0
31/01:00pm 12.3 3.2 11.2 93 0.6 SSE 50 57 27 31 1013.2 - 0.0
31/12:32pm 12.2 5.2 11.3 94 0.5 SE 39 59 21 32 1013.2 - 0.0
31/12:30pm 12.3 3.2 11.2 93 0.6 SSE 50 59 27 32 1013.1 - 0.0
31/12:03pm 12.8 4.2 11.5 92 0.7 S 48 54 26 29 1013.2 - 0.0
31/12:00pm 12.7 6.1 11.4 92 0.7 ESE 37 54 20 29 1013.3 1013.2 0.0
31/11:47am 12.5 6.7 11.4 93 0.6 ESE 33 59 18 32 1013.2 - 0.0
31/11:37am 12.7 4.1 11.8 94 0.5 S 48 54 26 29 1013.3 - 0.0
31/11:30am 12.4 5.0 11.3 93 0.6 SE 41 54 22 29 1013.3 - 0.0
31/11:12am 12.3 7.1 11.5 95 0.4 ESE 30 56 16 30 1013.5 - 0.0
31/11:11am 12.3 8.6 11.4 94 0.5 E 22 56 12 30 1013.5 - 0.0
31/11:00am 12.1 4.4 11.5 96 0.3 SE 43 57 23 31 1013.6 - 0.0
31/10:38am 12.0 5.4 11.4 96 0.3 SE 37 57 20 31 1013.5 - 0.0
31/10:30am 12.0 4.3 11.4 96 0.3 SSE 43 54 23 29 1013.6 - 0.0
31/10:00am 11.9 6.0 11.1 95 0.4 SE 33 54 18 29 1013.7 - 0.0
31/09:43am 11.9 4.0 10.9 94 0.5 SE 43 61 23 33 1013.7 - 0.0
31/09:41am 11.9 3.5 11.1 95 0.4 SSE 46 61 25 33 1013.6 - 0.0
31/09:39am 11.9 9.4 10.9 94 0.5 N 15 59 8 32 1013.8 - 0.0
31/09:34am 11.9 4.5 11.1 95 0.4 SE 41 59 22 32 1013.6 - 0.0
31/09:30am 11.9 9.0 11.1 95 0.4 NNE 17 48 9 26 1013.7 - 0.0
31/09:11am 11.7 5.4 11.1 96 0.3 SE 35 54 19 29 1013.8 - 0.0
31/09:08am 11.7 4.3 11.1 96 0.3 SSE 41 54 22 29 1013.7 - 0.0
31/09:00am 11.7 5.8 11.1 96 0.3 SE 33 44 18 24 1013.8 1013.7 2.4
31/08:53am 11.7 6.7 11.1 96 0.3 ESE 28 56 15 30 1013.8 - 2.4
31/08:49am 11.7 3.8 10.9 95 0.4 SSE 43 56 23 30 1013.7 - 2.4
31/08:30am 11.8 6.1 11.0 95 0.4 ESE 32 56 17 30 1013.6 - 2.4
31/08:01am 11.4 5.7 11.0 97 0.2 ESE 32 50 17 27 1013.4 - 2.4
31/08:00am 11.5 5.7 10.9 96 0.3 ESE 32 52 17 28 1013.4 - 2.4
31/07:31am 11.5 5.6 11.1 97 0.2 ESE 33 52 18 28 1013.4 - 2.4
31/07:30am 11.5 5.2 10.9 96 0.3 ESE 35 52 19 28 1013.4 - 2.4
31/07:05am 11.5 4.8 11.1 97 0.2 SE 37 57 20 31 1013.3 - 2.4
31/07:00am 11.5 4.4 10.9 96 0.3 SE 39 50 21 27 1013.4 - 2.4
31/06:30am 11.5 6.0 10.7 95 0.4 ESE 30 52 16 28 1013.5 - 2.0
31/06:00am 11.6 4.8 10.8 95 0.4 SE 37 57 20 31 1013.3 1013.2 2.0
31/05:44am 11.7 6.6 10.5 92 0.6 ESE 28 46 15 25 1013.3 - 2.0
31/05:30am 11.6 8.5 10.2 91 0.7 NE 17 33 9 18 1013.5 - 2.0
31/05:00am 11.3 8.6 10.5 95 0.4 N 15 44 8 24 1013.5 - 2.0
31/04:35am 11.5 6.4 10.5 94 0.5 ESE 28 52 15 28 1013.5 - 2.0
31/04:30am 11.5 5.6 10.5 94 0.5 ESE 32 52 17 28 1013.5 - 2.0
31/04:04am 11.8 5.4 10.6 92 0.6 SE 35 54 19 29 1013.8 - 2.0
31/04:01am 11.8 4.2 10.5 92 0.7 SE 41 54 22 29 1013.7 - 2.0
31/04:00am 11.8 6.3 10.5 92 0.7 E 30 52 16 28 1013.8 - 2.0
31/03:50am 11.7 5.2 10.5 92 0.6 SE 35 54 19 29 1013.8 - 2.0
31/03:35am 11.7 4.0 10.3 91 0.7 SE 41 50 22 27 1013.9 - 2.0
31/03:34am 11.8 6.2 10.3 90 0.8 E 30 50 16 27 1014.0 - 2.0
31/03:30am 11.8 7.8 10.3 90 0.8 E 22 48 12 26 1014.1 - 2.0
31/03:02am 11.6 6.1 10.6 94 0.5 SE 30 48 16 26 1014.3 - 2.0
31/03:00am 11.6 8.6 10.6 94 0.5 ENE 17 44 9 24 1014.4 1014.4 2.0
31/02:30am 11.4 5.3 10.6 95 0.4 SE 33 63 18 34 1014.6 - 1.8
31/02:23am 11.6 5.5 10.4 92 0.6 SE 33 63 18 34 1014.3 - 1.6
31/02:13am 11.5 3.8 10.1 91 0.7 SSE 41 50 22 27 1014.7 - 1.6
31/02:12am 11.5 6.3 10.1 91 0.7 ESE 28 46 15 25 1014.8 - 1.6
31/02:00am 11.7 6.1 10.1 90 0.8 E 30 46 16 25 1014.8 - 1.6
31/01:44am 11.7 6.4 9.9 89 0.9 E 28 52 15 28 1014.9 - 1.6
31/01:40am 11.6 3.9 10.0 90 0.8 SSE 41 52 22 28 1015.0 - 1.6
31/01:35am 11.7 6.4 9.9 89 0.9 ESE 28 50 15 27 1015.1 - 1.6
31/01:30am 11.7 7.9 9.7 87 1.0 E 20 41 11 22 1015.1 - 1.6
31/01:00am 11.6 7.8 9.0 84 1.3 ENE 19 32 10 17 1015.1 - 1.6
31/12:30am 11.8 9.3 9.8 87 1.0 NNE 13 30 7 16 1015.4 - 1.6
31/12:00am 11.9 9.5 10.0 88 1.0 ENE 13 32 7 17 1015.6 1015.7 1.6
 
Date/Time
EDT
Temp
°C
App
Temp
°C
Dew
Point
Rel
Hum
%
Delta-T
°C
Wind Press
QNH
hPa
Press
MSL
hPa
Rain
since 9 am
mm
Dir
 
Spd
km/h
Gust
km/h
Spd
kts
Gust
kts
30/11:30pm 11.8 8.3 10.3 90 0.8 ENE 19 35 10 19 1015.8 - 1.6
30/11:00pm 11.8 7.5 10.6 92 0.6 ESE 24 43 13 23 1016.0 - 1.6
30/10:47pm 11.7 6.6 10.5 92 0.6 ESE 28 46 15 25 1016.1 - 1.6
30/10:30pm 11.8 7.5 10.6 92 0.6 ESE 24 48 13 26 1016.4 - 1.6
30/10:00pm 11.7 9.0 10.3 91 0.7 NNE 15 39 8 21 1016.7 - 1.6
30/09:51pm 11.7 6.5 10.3 91 0.7 ESE 28 52 15 28 1016.6 - 1.6
30/09:30pm 11.8 9.2 10.6 92 0.6 NNE 15 44 8 24 1016.9 - 1.6
30/09:00pm 11.8 9.6 10.8 94 0.5 NNE 13 30 7 16 1017.0 1016.8 1.6
30/08:30pm 11.9 9.4 10.9 94 0.5 NNE 15 30 8 16 1016.8 - 1.4
30/08:00pm 11.9 9.4 11.1 95 0.4 NNE 15 26 8 14 1016.7 - 1.4
30/07:30pm 12.0 9.9 11.2 95 0.4 NNE 13 26 7 14 1016.8 - 1.4
30/07:00pm 12.2 10.9 11.4 95 0.4 N 9 13 5 7 1017.0 - 1.0
30/06:30pm 12.2 10.6 11.4 95 0.4 N 11 22 6 12 1017.2 - 0.8
30/06:00pm 12.4 11.2 11.5 94 0.5 N 9 15 5 8 1017.5 1017.3 0.6
30/05:30pm 13.5 12.3 11.6 88 1.0 NNW 9 15 5 8 1017.7 - 0.2
30/05:00pm 13.7 12.8 11.5 86 1.2 N 7 11 4 6 1017.8 - 0.2
30/04:30pm 14.4 13.4 11.0 80 1.8 NNW 7 13 4 7 1017.9 - 0.2
30/04:00pm 14.8 13.3 10.6 76 2.2 NNW 9 11 5 6 1018.2 - 0.2
30/03:30pm 14.8 13.9 11.5 80 1.8 NNW 7 9 4 5 1018.4 - 0.2
30/03:00pm 15.4 10.6 11.7 78 2.0 SE 28 13 15 7 1018.7 1018.6 0.2
30/02:30pm 14.2 13.2 11.0 81 1.7 NNW 7 13 4 7 1019.0 - 0.2
30/02:00pm 14.8 13.5 11.1 78 2.0 N 9 15 5 8 1019.0 - 0.2
30/01:30pm 14.0 12.5 10.6 80 1.8 NNW 9 17 5 9 1019.1 - 0.0
30/01:00pm 13.8 12.3 10.6 81 1.7 NNW 9 11 5 6 1019.3 - 0.0
30/12:30pm 13.4 12.1 11.3 87 1.1 NNW 9 13 5 7 1019.5 - 0.0
30/12:00pm 13.5 12.0 10.4 81 1.6 NNW 9 15 5 8 1019.7 1019.6 0.0
30/11:30am 13.4 11.8 10.3 81 1.6 NNW 9 17 5 9 1019.8 - 0.0
30/11:00am 13.2 11.6 10.3 82 1.5 NNW 9 15 5 8 1020.1 - 0.0
30/10:30am 12.9 11.6 11.4 91 0.8 N 9 15 5 8 1020.4 - 0.0
30/10:00am 12.6 11.3 11.1 91 0.8 N 9 15 5 8 1020.5 - 0.0
30/09:30am 12.7 11.2 10.6 87 1.1 N 9 15 5 8 1020.7 - 0.0
30/09:00am 12.7 7.7 9.4 80 1.7 ESE 26 17 14 9 1020.9 1020.9 0.2
30/08:30am 12.5 11.0 10.6 88 1.0 NNW 9 17 5 9 1021.0 - 0.2
30/08:00am 12.3 10.8 10.6 89 0.9 NNW 9 17 5 9 1021.0 - 0.2
30/07:30am 12.1 10.6 10.4 89 0.9 N 9 15 5 8 1020.9 - 0.2
30/07:00am 12.1 10.2 10.4 89 0.9 NNW 11 15 6 8 1020.7 - 0.2
30/06:30am 12.1 10.2 10.6 90 0.8 N 11 17 6 9 1020.9 - 0.2
30/06:00am 12.2 7.3 9.9 86 1.2 ESE 26 11 14 6 1020.8 1020.9 0.0
30/05:30am 12.2 10.9 9.9 86 1.2 NW 7 13 4 7 1021.0 - 0.0
30/05:00am 12.4 10.5 9.2 81 1.6 NNW 9 15 5 8 1021.0 - 0.0
30/04:30am 12.3 11.0 9.8 85 1.3 NNW 7 13 4 7 1021.2 - 0.0
30/04:00am 12.1 10.3 9.3 83 1.4 NNW 9 13 5 7 1021.3 - 0.0
30/03:30am 11.9 10.1 9.3 84 1.3 NNW 9 17 5 9 1021.5 - 0.0
30/03:00am 11.7 10.4 10.1 90 0.8 N 7 13 4 7 1022.1 1022.1 0.0
30/02:30am 11.8 10.0 9.4 85 1.2 NNW 9 20 5 11 1022.3 - 0.0
30/02:00am 11.6 9.8 9.4 86 1.1 NNW 9 17 5 9 1022.7 - 0.0
30/01:30am 11.4 9.8 8.6 83 1.4 NNW 7 13 4 7 1023.1 - 0.0
30/01:00am 11.4 9.8 8.8 84 1.3 N 7 11 4 6 1023.7 - 0.0
30/12:30am 11.9 9.6 7.4 74 2.2 NW 9 13 5 7 1023.8 - 0.0
30/12:00am 12.1 9.6 6.7 69 2.6 NNW 9 15 5 8 1023.6 1023.5 0.0
 
Date/Time
EDT
Temp
°C
App
Temp
°C
Dew
Point
Rel
Hum
%
Delta-T
°C
Wind Press
QNH
hPa
Press
MSL
hPa
Rain
since 9 am
mm
Dir
 
Spd
km/h
Gust
km/h
Spd
kts
Gust
kts
29/11:30pm 12.0 9.9 8.1 77 1.9 NNW 9 17 5 9 1024.0 - 0.0
29/11:00pm 11.8 9.9 7.5 75 2.1 NNW 7 17 4 9 1024.2 - 0.0
29/10:30pm 12.2 9.9 7.5 73 2.3 NNW 9 13 5 7 1024.4 - 0.0
29/10:00pm 12.0 9.9 6.8 70 2.5 NNW 7 15 4 8 1024.5 - 0.0
29/09:30pm 12.0 10.1 7.5 74 2.2 NNW 7 15 4 8 1024.6 - 0.0
29/09:00pm 11.9 10.2 8.5 80 1.7 NNW 7 11 4 6 1024.4 1024.3 0.0
29/08:30pm 11.8 9.7 8.4 80 1.7 N 9 13 5 7 1024.4 - 0.0
29/08:00pm 12.1 10.2 7.6 74 2.2 NW 7 11 4 6 1024.6 - 0.0
29/07:30pm 12.3 10.4 7.6 73 2.3 NNW 7 11 4 6 1024.7 - 0.0
29/07:00pm 12.7 10.5 8.0 73 2.3 NNW 9 15 5 8 1024.5 - 0.0
29/06:30pm 12.6 10.7 7.5 71 2.5 NNW 7 13 4 7 1024.7 - 0.0
29/06:00pm 13.3 11.7 8.1 71 2.6 NW 6 11 3 6 1024.8 1024.7 0.0
29/05:30pm 13.2 11.4 7.9 70 2.6 NNW 7 11 4 6 1024.9 - 0.0
29/05:00pm 13.2 11.3 7.7 69 2.7 N 7 11 4 6 1025.1 - 0.0

Other Formats:

Comma delimited format used in spreadsheet applications
http://www.bom.gov.au/fwo/IDT60801/IDT60801.94962.axf

JavaScript Object Notation format (JSON) in row-major order
http://www.bom.gov.au/fwo/IDT60801/IDT60801.94962.json